Dyce, United Kingdom
Current Conditions -  °F | °C
As of 7:50 PM on Saturday 20 Dec 2014 (Local Time) from EGPD Reporting Station
Clear Clear  
Wind Chill: 36°   Ceiling: Unl
Heat Index: 41°   Visibility: 6mi
Dew Point: 34°   Wind: 8mph
Humidity: 76%   Direction: 240°WSW
Pressure: 30.12"   Gusts: NA
Location:  57.25°N, 2.23°W
Report Text: EGPD 201950Z 24007KT CAVOK 05/01 Q1020 NOSIG
Loading
Personal Weather Stations






























Interactive Weather Map New forecast layout! Learn more

10-Day Weather Forecast

Advertisements
Track Severe Weather on mobile